This is the latest recevied weather packets stored in our database for station/object F5ZQC-13. If no packets are shown the sender has not sent any weather packets the latest 1 day(s).
| Time | Temp. | Humidity | Pressure | Rain* | Wind** | Luminosity | Snow |
|---|---|---|---|---|---|---|---|
| 1778078718 | 21.11° C | 28% | 1009.1 hPa | 0 mm | - | - | - |
| 1778078351 | 21.67° C | 27% | 1009.1 hPa | 0 mm | - | - | - |
| 1778077374 | 22.78° C | 24% | 1009 hPa | 0 mm | - | - | - |
| 1778076762 | 23.33° C | 22% | 1009.1 hPa | 0 mm | - | - | - |
| 1778075295 | 25.56° C | 20% | 1009 hPa | 0 mm | - | - | - |
| 1778074724 | 25.56° C | 20% | 1009.1 hPa | 0 mm | - | - | - |
| 1778074112 | 25.56° C | 21% | 1009.1 hPa | 0 mm | - | - | - |
| 1778073992 | 25.56° C | 22% | 1009 hPa | 0 mm | - | - | - |
| 1778073623 | 25° C | 22% | 1008.9 hPa | 0 mm | - | - | - |
| 1778073502 | 25° C | 22% | 1009 hPa | 0 mm | - | - | - |
| 1778073379 | 24.44° C | 24% | 1008.9 hPa | 0 mm | - | - | - |
| 1778073256 | 24.44° C | 24% | 1009 hPa | 0 mm | - | - | - |
| 1778073138 | 24.44° C | 23% | 1009 hPa | 0 mm | - | - | - |
| 1778073012 | 23.89° C | 23% | 1009 hPa | 0 mm | - | - | - |
| 1778072278 | 23.33° C | 24% | 1009 hPa | 0 mm | - | - | - |
| 1778071793 | 22.78° C | 23% | 1009.1 hPa | 0 mm | - | - | - |
| 1778071669 | 22.78° C | 22% | 1009.2 hPa | 0 mm | - | - | - |
| 1778071544 | 22.78° C | 22% | 1009.2 hPa | 0 mm | - | - | - |
| 1778071423 | 22.78° C | 22% | 1009.2 hPa | 0 mm | - | - | - |
| 1778071301 | 23.33° C | 22% | 1009.1 hPa | 0 mm | - | - | - |
| 1778071181 | 23.33° C | 23% | 1009.1 hPa | 0 mm | - | - | - |
| 1778068711 | 23.89° C | 22% | 1009.1 hPa | 0 mm | - | - | - |
| 1778068019 | 24.44° C | 21% | 1009.3 hPa | 0 mm | - | - | - |
| 1778067895 | 25° C | 22% | 1009.4 hPa | 0 mm | - | - | - |
| 1778066796 | 24.44° C | 25% | 1009.4 hPa | 0 mm | - | - | - |
* Rain since midnight (hover to see other rain measurements)
** Current wind speed in m/s (hover to see current wind gust speed)